createdAt,value
2017-11-03T00:00:05.512Z,41.2
2017-11-03T00:02:08.032Z,41.2
2017-11-03T00:04:05.793Z,41.1
2017-11-03T00:06:05.593Z,41
2017-11-03T00:08:05.355Z,41.2
2017-11-03T00:10:05.658Z,41
2017-11-03T00:12:08.660Z,41.1
2017-11-03T00:14:05.652Z,41.1
2017-11-03T00:16:05.389Z,41.1
2017-11-03T00:18:07.853Z,41.1
2017-11-03T00:20:05.669Z,41.1
2017-11-03T00:22:05.520Z,41
2017-11-03T00:24:05.214Z,41.1
2017-11-03T00:26:05.195Z,41.1
2017-11-03T00:28:05.159Z,41.2
2017-11-03T00:30:06.057Z,41
2017-11-03T00:32:13.480Z,41.2
2017-11-03T00:34:05.202Z,41.2
2017-11-03T00:36:08.452Z,41.2
2017-11-03T00:38:05.115Z,41.2
2017-11-03T00:40:05.747Z,41.2
2017-11-03T00:42:05.430Z,41.2
2017-11-03T00:44:05.262Z,41.2
2017-11-03T00:46:05.556Z,41.1
2017-11-03T00:48:05.338Z,41
2017-11-03T00:50:07.566Z,41
2017-11-03T00:52:08.391Z,41.2
2017-11-03T00:54:05.143Z,41.1
2017-11-03T00:56:05.863Z,41.1
2017-11-03T00:58:05.149Z,41
2017-11-03T01:00:05.878Z,41.1
2017-11-03T01:02:05.727Z,40.7
2017-11-03T01:04:05.431Z,40.8
2017-11-03T01:06:05.176Z,40.7
2017-11-03T01:08:08.453Z,40.8
2017-11-03T01:10:05.132Z,40.8
2017-11-03T01:12:05.827Z,40.8
2017-11-03T01:14:08.068Z,40.7
2017-11-03T01:16:05.739Z,40.7
2017-11-03T01:18:05.721Z,40.7
2017-11-03T01:20:05.497Z,40.8
2017-11-03T01:22:05.198Z,40.8
2017-11-03T01:24:08.441Z,40.7
2017-11-03T01:26:07.717Z,40.7
2017-11-03T01:28:05.382Z,40.7
2017-11-03T01:30:05.091Z,40.8
2017-11-03T01:32:05.401Z,40.5
2017-11-03T01:34:05.118Z,40.7
2017-11-03T01:36:08.374Z,40.6
2017-11-03T01:38:07.811Z,40.7
2017-11-03T01:40:05.503Z,40.6
2017-11-03T01:42:05.206Z,40.5
2017-11-03T01:44:05.894Z,40.6
2017-11-03T01:46:05.674Z,40.6
2017-11-03T01:48:05.409Z,40.7
2017-11-03T01:50:05.118Z,40.5
2017-11-03T01:52:05.845Z,40.6
2017-11-03T01:54:05.577Z,40.4
2017-11-03T01:56:08.459Z,40.7
2017-11-03T01:58:05.206Z,40.7
2017-11-03T02:00:05.481Z,40.4
2017-11-03T02:02:05.774Z,40.3
2017-11-03T02:04:05.486Z,40.5
2017-11-03T02:06:05.791Z,40.5
2017-11-03T02:08:08.125Z,40.3
2017-11-03T02:10:05.932Z,40.3
2017-11-03T02:12:08.194Z,40.5
2017-11-03T02:14:11.037Z,40.3
2017-11-03T02:16:15.844Z,40.4
2017-11-03T02:18:08.299Z,40.4
2017-11-03T02:20:13.728Z,40.2
2017-11-03T02:22:08.032Z,40.3
2017-11-03T02:24:05.700Z,40.3
2017-11-03T02:26:05.452Z,40.6
2017-11-03T02:28:07.684Z,40.6
2017-11-03T02:30:05.469Z,40.5
2017-11-03T02:32:10.217Z,40.4
2017-11-03T02:34:08.392Z,40.6
2017-11-03T02:36:05.093Z,40.6
2017-11-03T02:38:05.789Z,40.3
2017-11-03T02:40:05.085Z,40.6
2017-11-03T02:42:05.796Z,40.5
2017-11-03T02:44:05.474Z,40.5
2017-11-03T02:46:12.751Z,40.6
2017-11-03T02:48:05.375Z,40.6
2017-11-03T02:50:05.046Z,40.1
2017-11-03T02:52:08.312Z,40.2
2017-11-03T02:54:06.048Z,40.2
2017-11-03T02:56:05.799Z,40.3
2017-11-03T02:58:05.586Z,40.4
2017-11-03T03:00:10.340Z,40.2
2017-11-03T03:02:07.608Z,40.2
2017-11-03T03:04:05.281Z,40.3
2017-11-03T03:06:08.021Z,40.6
2017-11-03T03:08:08.336Z,40.4
2017-11-03T03:10:08.079Z,40.5
2017-11-03T03:12:07.806Z,40.2
2017-11-03T03:14:05.569Z,40.5
2017-11-03T03:16:07.827Z,40.4
2017-11-03T03:18:05.755Z,40.1
2017-11-03T03:20:05.498Z,40.3
2017-11-03T03:22:07.752Z,40.3
2017-11-03T03:24:05.457Z,40.2
2017-11-03T03:26:07.728Z,40.2
2017-11-03T03:28:05.506Z,40.3
2017-11-03T03:30:05.186Z,40.3
2017-11-03T03:32:05.899Z,40.2
2017-11-03T03:34:05.580Z,40.3
2017-11-03T03:36:05.295Z,40.3
2017-11-03T03:38:06.054Z,40.3
2017-11-03T03:40:05.765Z,40.2
2017-11-03T03:42:05.496Z,40.3
2017-11-03T03:44:12.817Z,40.4
2017-11-03T03:46:05.553Z,40.4
2017-11-03T03:48:07.755Z,40.4
2017-11-03T03:50:06.160Z,40.3
2017-11-03T03:52:05.881Z,40.4
2017-11-03T03:54:05.581Z,40.3
2017-11-03T03:56:05.840Z,40
2017-11-03T03:58:08.062Z,40.1
2017-11-03T04:00:05.344Z,40.1
2017-11-03T04:02:07.634Z,40.1
2017-11-03T04:04:10.507Z,40
2017-11-03T04:06:07.758Z,40
2017-11-03T04:08:05.474Z,40.1
2017-11-03T04:10:05.168Z,40
2017-11-03T04:12:05.951Z,40
2017-11-03T04:14:05.748Z,40
2017-11-03T04:16:07.999Z,40
2017-11-03T04:18:05.966Z,40
2017-11-03T04:20:05.684Z,40
2017-11-03T04:22:05.927Z,39.9
2017-11-03T04:24:05.665Z,40
2017-11-03T04:26:05.455Z,40
2017-11-03T04:28:05.681Z,40
2017-11-03T04:30:05.424Z,40
2017-11-03T04:32:05.233Z,40
2017-11-03T04:34:05.525Z,40
2017-11-03T04:36:05.268Z,40
2017-11-03T04:38:06.087Z,39.9
2017-11-03T04:40:08.305Z,40
2017-11-03T04:42:05.141Z,39.9
2017-11-03T04:44:05.486Z,39.9
2017-11-03T04:46:07.794Z,39.9
2017-11-03T04:48:05.053Z,39.8
2017-11-03T04:50:05.424Z,39.7
2017-11-03T04:52:05.745Z,39.8
2017-11-03T04:54:05.579Z,39.8
2017-11-03T04:56:05.037Z,39.8
2017-11-03T04:58:07.875Z,39.8
2017-11-03T05:00:05.681Z,39.8
2017-11-03T05:02:05.394Z,39.8
2017-11-03T05:04:05.133Z,39.7
2017-11-03T05:06:05.448Z,40
2017-11-03T05:08:05.275Z,39.8
2017-11-03T05:10:08.545Z,39.8
2017-11-03T05:12:05.301Z,39.8
2017-11-03T05:14:07.574Z,39.8
2017-11-03T05:16:05.326Z,39.8
2017-11-03T05:18:05.890Z,39.8
2017-11-03T05:20:05.781Z,39.8
2017-11-03T05:22:11.154Z,39.8
2017-11-03T05:24:05.708Z,39.8
2017-11-03T05:26:05.965Z,39.8
2017-11-03T05:28:05.917Z,40.1
2017-11-03T05:30:05.695Z,40.1
2017-11-03T05:32:08.566Z,40
2017-11-03T05:34:05.816Z,40
2017-11-03T05:36:10.676Z,40
2017-11-03T05:38:05.676Z,40
2017-11-03T05:40:08.290Z,40
2017-11-03T05:42:08.837Z,40
2017-11-03T05:44:07.998Z,40
2017-11-03T05:46:05.779Z,40
2017-11-03T05:48:05.065Z,40
2017-11-03T05:50:05.898Z,40
2017-11-03T05:52:05.590Z,40
2017-11-03T05:54:05.354Z,40
2017-11-03T05:56:05.590Z,39.9
2017-11-03T05:58:05.282Z,40.1
2017-11-03T06:00:08.552Z,39.9
2017-11-03T06:02:07.810Z,39.9
2017-11-03T06:04:08.076Z,40
2017-11-03T06:06:05.425Z,40
2017-11-03T06:08:05.180Z,40.1
2017-11-03T06:10:05.895Z,40.1
2017-11-03T06:12:10.699Z,40.1
2017-11-03T06:14:05.406Z,40
2017-11-03T06:16:05.153Z,40.1
2017-11-03T06:18:07.579Z,40.1
2017-11-03T06:20:05.347Z,40.1
2017-11-03T06:22:07.596Z,40
2017-11-03T06:24:10.398Z,40
2017-11-03T06:26:05.242Z,40
2017-11-03T06:28:05.512Z,40.1
2017-11-03T06:30:05.782Z,40
2017-11-03T06:32:06.059Z,40.1
2017-11-03T06:34:05.825Z,40.1
2017-11-03T06:36:08.114Z,40.1
2017-11-03T06:38:05.820Z,40.1
2017-11-03T06:40:05.578Z,40.1
2017-11-03T06:42:07.819Z,40.2
2017-11-03T06:44:05.568Z,40.2
2017-11-03T06:46:05.305Z,40.2
2017-11-03T06:48:05.968Z,40.2
2017-11-03T06:50:05.204Z,40.2
2017-11-03T06:52:05.895Z,40.2
2017-11-03T06:54:05.639Z,40.2
2017-11-03T06:56:05.508Z,40.3
2017-11-03T06:58:05.202Z,40.1
2017-11-03T07:00:05.895Z,40.2
2017-11-03T07:02:05.645Z,40.1
2017-11-03T07:04:05.338Z,40.1
2017-11-03T07:06:05.592Z,40.2
2017-11-03T07:08:13.096Z,40.2
2017-11-03T07:10:05.314Z,40.2
2017-11-03T07:12:06.039Z,40.5
2017-11-03T07:14:05.684Z,40.2
2017-11-03T07:16:07.921Z,40.3
2017-11-03T07:18:05.845Z,40.2
2017-11-03T07:20:08.191Z,40.4
2017-11-03T07:22:06.088Z,40.4
2017-11-03T07:24:05.745Z,40.4
2017-11-03T07:26:18.442Z,40.3
2017-11-03T07:28:08.079Z,40.3
2017-11-03T07:30:05.837Z,40.3
2017-11-03T07:32:05.553Z,40.2
2017-11-03T07:34:05.470Z,40.1
2017-11-03T07:36:07.864Z,40.2
2017-11-03T07:38:05.612Z,40.2
2017-11-03T07:40:10.366Z,40.1
2017-11-03T07:42:05.102Z,40.1
2017-11-03T07:44:11.101Z,40
2017-11-03T07:46:05.770Z,40.3
2017-11-03T07:48:08.018Z,40.3
2017-11-03T07:50:10.919Z,40.5
2017-11-03T07:52:05.655Z,40.5
2017-11-03T07:54:05.454Z,40.3
2017-11-03T07:56:07.770Z,40.1
2017-11-03T07:58:05.727Z,40.1
2017-11-03T08:00:05.979Z,40.4
2017-11-03T08:02:05.802Z,40.5
2017-11-03T08:04:05.487Z,40.4
2017-11-03T08:06:05.213Z,40.3
2017-11-03T08:08:05.923Z,40.5
2017-11-03T08:10:08.216Z,40.4
2017-11-03T08:12:11.004Z,40.5
2017-11-03T08:14:05.733Z,40.2
2017-11-03T08:16:05.393Z,40.3
2017-11-03T08:18:05.312Z,40.5
2017-11-03T08:20:06.317Z,40.3
2017-11-03T08:22:05.112Z,40.2
2017-11-03T08:24:05.793Z,40.2
2017-11-03T08:26:05.519Z,40.2
2017-11-03T08:28:05.796Z,40.4
2017-11-03T08:30:05.563Z,40.4
2017-11-03T08:32:05.358Z,40.4
2017-11-03T08:34:07.630Z,40.7
2017-11-03T08:36:05.371Z,40.7
2017-11-03T08:38:05.163Z,40.9
2017-11-03T08:40:06.029Z,40.9
2017-11-03T08:42:05.805Z,41.1
2017-11-03T08:44:05.130Z,41.1
2017-11-03T08:46:05.857Z,41
2017-11-03T08:48:05.106Z,40.9
2017-11-03T08:50:08.347Z,40.7
2017-11-03T08:52:07.751Z,40.6
2017-11-03T08:54:05.462Z,40.4
2017-11-03T08:56:05.232Z,40.4
2017-11-03T08:58:10.049Z,40.3
2017-11-03T09:00:05.765Z,40.5
2017-11-03T09:02:05.474Z,40.4
2017-11-03T09:04:07.900Z,40.5
2017-11-03T09:06:10.703Z,40.4
2017-11-03T09:08:05.517Z,40.4
2017-11-03T09:10:05.248Z,40.5
2017-11-03T09:12:06.086Z,40.5
2017-11-03T09:14:05.997Z,40.7
2017-11-03T09:16:05.404Z,40.8
2017-11-03T09:18:05.334Z,41
2017-11-03T09:20:05.647Z,41.1
2017-11-03T09:22:05.368Z,40.8
2017-11-03T09:24:05.598Z,40.7
2017-11-03T09:26:05.841Z,40.6
2017-11-03T09:28:05.586Z,40.7
2017-11-03T09:30:05.295Z,40.5
2017-11-03T09:32:05.517Z,40.4
2017-11-03T09:34:05.491Z,40.6
2017-11-03T09:36:05.311Z,40.7
2017-11-03T09:38:06.108Z,40.4
2017-11-03T09:40:05.390Z,40.8
2017-11-03T09:42:05.106Z,41.1
2017-11-03T09:44:08.452Z,40.9
2017-11-03T09:46:07.766Z,40.9
2017-11-03T09:48:06.012Z,40.9
2017-11-03T09:50:05.765Z,40.9
2017-11-03T09:52:05.204Z,40.9
2017-11-03T09:54:08.626Z,40.9
2017-11-03T09:56:07.953Z,40.7
2017-11-03T09:58:06.014Z,40.7
2017-11-03T10:00:09.298Z,40.7
2017-11-03T10:02:05.096Z,40.7
2017-11-03T10:04:05.328Z,40.7
2017-11-03T10:06:05.056Z,40.7
2017-11-03T10:08:06.012Z,40.4
2017-11-03T10:10:05.979Z,40.7
2017-11-03T10:12:05.966Z,40.7
2017-11-03T10:14:07.133Z,40.7
2017-11-03T10:16:05.970Z,40.7
2017-11-03T10:18:08.520Z,40.3
2017-11-03T10:20:12.776Z,40.4
2017-11-03T10:22:06.041Z,40.4
2017-11-03T10:24:10.956Z,39.9
2017-11-03T10:26:05.676Z,40
2017-11-03T10:28:06.003Z,39.9
2017-11-03T10:30:05.724Z,40
2017-11-03T10:32:05.464Z,39.8
2017-11-03T10:34:08.713Z,39.7
2017-11-03T10:36:05.947Z,39.7
2017-11-03T10:38:08.447Z,39.6
2017-11-03T10:40:05.105Z,39.6
2017-11-03T10:42:05.085Z,39.5
2017-11-03T10:44:08.340Z,39.6
2017-11-03T10:46:15.168Z,39.6
2017-11-03T10:48:07.926Z,39.5
2017-11-03T10:50:10.762Z,39.5
2017-11-03T10:52:05.686Z,39.5
2017-11-03T10:54:10.436Z,39.5
2017-11-03T10:56:07.810Z,39.5
2017-11-03T10:58:05.753Z,39.5
2017-11-03T11:00:08.263Z,39.5
2017-11-03T11:02:05.199Z,39.4
2017-11-03T11:04:05.602Z,39.2
2017-11-03T11:06:05.316Z,39.3
2017-11-03T11:08:05.761Z,39.3
2017-11-03T11:10:06.007Z,39.3
2017-11-03T11:12:08.209Z,39.3
2017-11-03T11:14:06.029Z,39.3
2017-11-03T11:16:13.854Z,39.3
2017-11-03T11:18:05.837Z,39.3
2017-11-03T11:20:05.632Z,39.3
2017-11-03T11:22:10.431Z,39.1
2017-11-03T11:24:05.093Z,39.1
2017-11-03T11:26:05.425Z,39.2
2017-11-03T11:28:05.352Z,39.5
2017-11-03T11:30:06.607Z,39.1
2017-11-03T11:32:05.958Z,39.1
2017-11-03T11:34:08.303Z,39.2
2017-11-03T11:36:05.617Z,39.1
2017-11-03T11:38:05.419Z,39.1
2017-11-03T11:40:05.099Z,39.2
2017-11-03T11:42:10.844Z,39.1
2017-11-03T11:44:10.659Z,39
2017-11-03T11:46:05.403Z,39
2017-11-03T11:48:05.129Z,39.2
2017-11-03T11:50:05.858Z,39
2017-11-03T11:52:13.325Z,38.8
2017-11-03T11:54:05.886Z,38.8
2017-11-03T11:56:06.709Z,38.8
2017-11-03T11:58:10.564Z,38.9
2017-11-03T12:00:06.267Z,38.9
2017-11-03T12:02:08.507Z,38.9
2017-11-03T12:04:05.263Z,38.9
2017-11-03T12:06:05.957Z,38.9
2017-11-03T12:08:08.512Z,38.8
2017-11-03T12:10:07.979Z,38.7
2017-11-03T12:12:08.221Z,39
2017-11-03T12:14:06.225Z,38.7
2017-11-03T12:16:05.728Z,38.7
2017-11-03T12:18:05.154Z,38.6
2017-11-03T12:20:07.762Z,38.7
2017-11-03T12:22:05.483Z,38.8
2017-11-03T12:24:07.741Z,38.9
2017-11-03T12:26:05.700Z,38.9
2017-11-03T12:28:08.009Z,38.8
2017-11-03T12:30:05.787Z,38.8
2017-11-03T12:32:05.497Z,38.9
2017-11-03T12:34:06.422Z,38.6
2017-11-03T12:36:07.745Z,38.6
2017-11-03T12:38:05.468Z,38.6
2017-11-03T12:40:05.710Z,38.7
2017-11-03T12:42:05.598Z,38.7
2017-11-03T12:44:05.330Z,39
2017-11-03T12:46:11.184Z,38.8
2017-11-03T12:48:05.779Z,38.8
2017-11-03T12:50:06.058Z,38.8
2017-11-03T12:52:11.080Z,38.6
2017-11-03T12:54:06.761Z,38.6
2017-11-03T12:56:08.057Z,38.5
2017-11-03T12:58:08.307Z,38.5
2017-11-03T13:00:05.244Z,38.5
2017-11-03T13:02:05.860Z,38.6
2017-11-03T13:04:08.322Z,38.5
2017-11-03T13:06:07.548Z,38.3
2017-11-03T13:08:08.379Z,38.1
2017-11-03T13:10:06.608Z,38.1
2017-11-03T13:12:07.874Z,38.2
2017-11-03T13:14:05.731Z,38
2017-11-03T13:16:05.621Z,38.2
2017-11-03T13:18:05.678Z,38
2017-11-03T13:20:05.442Z,38
2017-11-03T13:22:07.687Z,38.2
2017-11-03T13:24:05.369Z,38.2
2017-11-03T13:26:05.225Z,38.3
2017-11-03T13:28:08.450Z,38.4
2017-11-03T13:30:05.194Z,38.1
2017-11-03T13:32:05.934Z,38.1
2017-11-03T13:34:05.676Z,38.5
2017-11-03T13:36:05.407Z,38.1
2017-11-03T13:38:05.119Z,38.5
2017-11-03T13:40:05.844Z,38.4
2017-11-03T13:42:08.126Z,38.5
2017-11-03T13:44:05.877Z,38.5
2017-11-03T13:46:05.592Z,38.6
2017-11-03T13:48:05.528Z,38.5
2017-11-03T13:50:05.274Z,38.6
2017-11-03T13:52:05.032Z,38.7
2017-11-03T13:54:05.968Z,38.8
2017-11-03T13:56:08.288Z,39.1
2017-11-03T13:58:06.011Z,39.1
2017-11-03T14:00:05.712Z,39.3
2017-11-03T14:02:07.968Z,39.4
2017-11-03T14:04:10.725Z,39.4
2017-11-03T14:06:05.482Z,39.4
2017-11-03T14:08:05.231Z,39.7
2017-11-03T14:10:06.012Z,40
2017-11-03T14:12:08.307Z,39.6
2017-11-03T14:14:08.092Z,39.4
2017-11-03T14:16:05.808Z,39.5
2017-11-03T14:18:05.753Z,40
2017-11-03T14:20:05.731Z,40
2017-11-03T14:22:05.462Z,40
2017-11-03T14:24:05.140Z,40.2
2017-11-03T14:26:06.053Z,40.2
2017-11-03T14:28:05.749Z,40.2
2017-11-03T14:30:08.014Z,40
2017-11-03T14:32:05.712Z,40.2
2017-11-03T14:34:08.045Z,40
2017-11-03T14:36:05.300Z,40
2017-11-03T14:38:06.002Z,40.2
2017-11-03T14:40:08.237Z,40.2
2017-11-03T14:42:05.583Z,40.2
2017-11-03T14:44:07.834Z,40
2017-11-03T14:46:05.538Z,40
2017-11-03T14:48:05.253Z,40.2
2017-11-03T14:50:05.500Z,40.1
2017-11-03T14:52:07.740Z,39.6
2017-11-03T14:54:10.534Z,39.6
2017-11-03T14:56:05.274Z,39.6
2017-11-03T14:58:05.995Z,39.8
2017-11-03T15:00:06.906Z,39.6
2017-11-03T15:02:05.602Z,39.5
2017-11-03T15:04:05.355Z,39.5
2017-11-03T15:06:05.028Z,39.4
2017-11-03T15:08:05.716Z,39.4
2017-11-03T15:10:08.069Z,39.3
2017-11-03T15:12:05.774Z,39
2017-11-03T15:14:05.630Z,39.2
2017-11-03T15:16:06.377Z,39.2
2017-11-03T15:18:05.308Z,39.1
2017-11-03T15:20:05.307Z,39.1
2017-11-03T15:22:06.081Z,39.1
2017-11-03T15:24:07.945Z,39
2017-11-03T15:26:10.790Z,38.9
2017-11-03T15:28:07.995Z,39
2017-11-03T15:30:05.710Z,38.9
2017-11-03T15:32:06.021Z,39
2017-11-03T15:34:05.272Z,39.1
2017-11-03T15:36:08.586Z,39.1
2017-11-03T15:38:05.791Z,38.9
2017-11-03T15:40:08.070Z,39.1
2017-11-03T15:42:05.933Z,39.1
2017-11-03T15:44:08.261Z,38.7
2017-11-03T15:46:07.567Z,38.9
2017-11-03T15:48:05.309Z,38.9
2017-11-03T15:50:05.569Z,38.9
2017-11-03T15:52:08.837Z,38.9
2017-11-03T15:54:05.116Z,39
2017-11-03T15:56:08.402Z,39
2017-11-03T15:58:05.095Z,39
2017-11-03T16:00:05.876Z,39
2017-11-03T16:02:05.594Z,39.1
2017-11-03T16:04:05.280Z,38.9
2017-11-03T16:06:06.041Z,39.1
2017-11-03T16:08:08.316Z,39
2017-11-03T16:10:08.100Z,39.1
2017-11-03T16:12:05.346Z,39.1
2017-11-03T16:14:07.622Z,39.2
2017-11-03T16:16:05.597Z,39.2
2017-11-03T16:18:05.101Z,39.4
2017-11-03T16:20:05.799Z,39.4
2017-11-03T16:22:08.032Z,39.1
2017-11-03T16:24:05.185Z,39.2
2017-11-03T16:26:05.909Z,39.3
2017-11-03T16:28:08.139Z,39.7
2017-11-03T16:30:06.330Z,39.8
2017-11-03T16:32:05.234Z,39.3
2017-11-03T16:34:05.154Z,39.7
2017-11-03T16:36:05.560Z,39.7
2017-11-03T16:38:05.679Z,39.8
2017-11-03T16:40:08.162Z,39.8
2017-11-03T16:42:05.869Z,39.8
2017-11-03T16:44:05.604Z,39.8
2017-11-03T16:46:05.385Z,39.8
2017-11-03T16:48:12.947Z,39.8
2017-11-03T16:50:06.777Z,39.8
2017-11-03T16:52:10.575Z,39.4
2017-11-03T16:54:08.407Z,39.3
2017-11-03T16:56:08.096Z,39.4
2017-11-03T16:58:05.683Z,39.3
2017-11-03T17:00:05.879Z,39.8
2017-11-03T17:02:07.733Z,39.6
2017-11-03T17:04:05.657Z,39.8
2017-11-03T17:06:07.154Z,40
2017-11-03T17:08:05.952Z,39.8
2017-11-03T17:10:05.739Z,39.8
2017-11-03T17:12:05.542Z,39.5
2017-11-03T17:14:10.368Z,39.5
2017-11-03T17:16:05.875Z,39.5
2017-11-03T17:18:05.818Z,39.5
2017-11-03T17:20:05.334Z,39.1
2017-11-03T17:22:07.586Z,39.3
2017-11-03T17:24:12.902Z,39.2
2017-11-03T17:26:05.702Z,39.2
2017-11-03T17:28:10.553Z,39.2
2017-11-03T17:30:07.756Z,39.3
2017-11-03T17:32:05.489Z,39.2
2017-11-03T17:34:08.301Z,39.6
2017-11-03T17:36:05.708Z,39.6
2017-11-03T17:38:06.436Z,39.4
2017-11-03T17:40:05.141Z,39.1
2017-11-03T17:42:07.950Z,39.1
2017-11-03T17:44:08.287Z,39.1
2017-11-03T17:46:05.970Z,39.1
2017-11-03T17:48:05.673Z,39
2017-11-03T17:50:05.447Z,39
2017-11-03T17:52:05.160Z,39.1
2017-11-03T17:54:05.882Z,38.9
2017-11-03T17:56:08.186Z,38.9
2017-11-03T17:58:05.886Z,38.9
2017-11-03T18:00:05.599Z,39.1
2017-11-03T18:02:05.568Z,38.9
2017-11-03T18:04:05.277Z,39
2017-11-03T18:06:12.688Z,38.9
2017-11-03T18:08:08.000Z,38.7
2017-11-03T18:10:05.799Z,38.7
2017-11-03T18:12:05.831Z,38.9
2017-11-03T18:14:06.577Z,38.8
2017-11-03T18:16:05.733Z,38.7
2017-11-03T18:18:08.247Z,38.8
2017-11-03T18:20:05.988Z,38.8
2017-11-03T18:22:05.728Z,39
2017-11-03T18:24:08.481Z,38.6
2017-11-03T18:26:05.248Z,38.7
2017-11-03T18:28:05.592Z,38.6
2017-11-03T18:30:05.374Z,38.7
2017-11-03T18:32:07.712Z,38.4
2017-11-03T18:34:10.601Z,38.2
2017-11-03T18:36:05.744Z,38.2
2017-11-03T18:38:08.171Z,38.7
2017-11-03T18:40:05.943Z,38.6
2017-11-03T18:42:11.698Z,38.8
2017-11-03T18:44:11.299Z,38.8
2017-11-03T18:46:07.840Z,38.7
2017-11-03T18:48:06.045Z,38.7
2017-11-03T18:50:05.333Z,39
2017-11-03T18:52:07.662Z,39.1
2017-11-03T18:54:05.496Z,38.8
2017-11-03T18:56:07.796Z,38.7
2017-11-03T18:58:05.476Z,38.9
2017-11-03T19:00:05.396Z,38.6
2017-11-03T19:02:05.292Z,38.8
2017-11-03T19:04:06.044Z,38.8
2017-11-03T19:06:05.760Z,39.1
2017-11-03T19:08:05.607Z,39.1
2017-11-03T19:10:07.933Z,38.5
2017-11-03T19:12:08.177Z,38.6
2017-11-03T19:14:16.286Z,38.8
2017-11-03T19:16:05.226Z,38.8
2017-11-03T19:18:06.689Z,39
2017-11-03T19:20:05.415Z,39
2017-11-03T19:22:06.156Z,38.8
2017-11-03T19:24:11.359Z,39.1
2017-11-03T19:26:06.023Z,39.1
2017-11-03T19:28:06.650Z,39.2
2017-11-03T19:30:05.794Z,38.9
2017-11-03T19:32:05.782Z,39.1
2017-11-03T19:34:06.053Z,39.3
2017-11-03T19:36:08.284Z,39.3
2017-11-03T19:38:06.404Z,39.3
2017-11-03T19:40:05.533Z,39.3
2017-11-03T19:42:12.384Z,39.3
2017-11-03T19:44:05.270Z,39.3
2017-11-03T19:46:23.886Z,39.5
2017-11-03T19:48:08.787Z,39.5
2017-11-03T19:50:05.930Z,39.5
2017-11-03T19:52:08.350Z,39.5
2017-11-03T19:54:12.703Z,39.5
2017-11-03T19:56:13.005Z,39.5
2017-11-03T19:58:05.232Z,39.5
2017-11-03T20:00:05.986Z,39.3
2017-11-03T20:02:07.918Z,39.3
2017-11-03T20:04:07.578Z,39.3
2017-11-03T20:06:05.284Z,39.3
2017-11-03T20:08:06.080Z,39.3
2017-11-03T20:10:10.874Z,39.3
2017-11-03T20:12:08.234Z,39.3
2017-11-03T20:14:05.981Z,39.3
2017-11-03T20:16:06.114Z,39.3
2017-11-03T20:18:07.572Z,39.3
2017-11-03T20:20:05.308Z,39.3
2017-11-03T20:22:06.002Z,39.4
2017-11-03T20:24:06.720Z,39.3
2017-11-03T20:26:12.886Z,39.3
2017-11-03T20:28:08.271Z,39.4
2017-11-03T20:30:05.642Z,39.3
2017-11-03T20:32:05.685Z,39.3
2017-11-03T20:34:05.420Z,39.3
2017-11-03T20:36:05.274Z,39.3
2017-11-03T20:38:06.104Z,39.3
2017-11-03T20:40:05.783Z,39.4
2017-11-03T20:42:05.562Z,39.3
2017-11-03T20:44:05.268Z,39.3
2017-11-03T20:46:05.489Z,39.5
2017-11-03T20:48:05.209Z,39.5
2017-11-03T20:50:23.756Z,39.4
2017-11-03T20:52:05.502Z,39.3
2017-11-03T20:54:05.180Z,39.6
2017-11-03T20:56:05.950Z,39.5
2017-11-03T20:58:05.662Z,39.7
2017-11-03T21:00:10.450Z,39.5
2017-11-03T21:02:05.217Z,39.4
2017-11-03T21:04:05.426Z,39.8
2017-11-03T21:06:05.712Z,39.7
2017-11-03T21:08:05.461Z,39.4
2017-11-03T21:10:07.744Z,39.4
2017-11-03T21:12:08.025Z,39.5
2017-11-03T21:14:08.307Z,39.6
2017-11-03T21:16:05.989Z,39.6
2017-11-03T21:18:05.935Z,39.7
2017-11-03T21:20:10.422Z,39.3
2017-11-03T21:22:07.649Z,39.7
2017-11-03T21:24:05.391Z,39.6
2017-11-03T21:26:05.225Z,39.5
2017-11-03T21:28:05.922Z,39.4
2017-11-03T21:30:05.121Z,39.3
2017-11-03T21:32:10.946Z,39.7
2017-11-03T21:34:07.799Z,39.7
2017-11-03T21:36:05.496Z,39.6
2017-11-03T21:38:05.268Z,39.7
2017-11-03T21:40:06.012Z,39.7
2017-11-03T21:42:10.770Z,39.7
2017-11-03T21:44:05.524Z,39.8
2017-11-03T21:46:10.419Z,39.5
2017-11-03T21:48:05.203Z,39.5
2017-11-03T21:50:06.045Z,39.5
2017-11-03T21:52:05.856Z,39.5
2017-11-03T21:54:06.548Z,39.5
2017-11-03T21:56:05.135Z,39.5
2017-11-03T21:58:08.440Z,39.5
2017-11-03T22:00:05.214Z,39.5
2017-11-03T22:02:05.921Z,39.5
2017-11-03T22:04:05.622Z,39.5
2017-11-03T22:06:05.328Z,39.5
2017-11-03T22:08:07.607Z,39.5
2017-11-03T22:10:10.425Z,39.5
2017-11-03T22:12:05.637Z,39.5
2017-11-03T22:14:05.463Z,39.5
2017-11-03T22:16:05.274Z,39.5
2017-11-03T22:18:10.367Z,39.5
2017-11-03T22:20:07.964Z,39.5
2017-11-03T22:22:05.915Z,39.5
2017-11-03T22:24:06.005Z,39.5
2017-11-03T22:26:10.946Z,39.5
2017-11-03T22:28:05.863Z,39.5
2017-11-03T22:30:08.141Z,39.8
2017-11-03T22:32:05.876Z,39.5
2017-11-03T22:34:05.646Z,39.8
2017-11-03T22:36:07.876Z,39.8
2017-11-03T22:38:08.209Z,39.8
2017-11-03T22:40:05.926Z,39.8
2017-11-03T22:42:12.806Z,39.6
2017-11-03T22:44:05.060Z,39.5
2017-11-03T22:46:08.292Z,39.8
2017-11-03T22:48:07.529Z,39.8
2017-11-03T22:50:10.774Z,39.8
2017-11-03T22:52:05.555Z,39.8
2017-11-03T22:54:05.893Z,39.8
2017-11-03T22:56:05.704Z,39.8
2017-11-03T22:58:05.384Z,39.8
2017-11-03T23:00:07.855Z,39.8
2017-11-03T23:02:05.798Z,39.8
2017-11-03T23:04:05.486Z,39.5
2017-11-03T23:06:05.244Z,39.8
2017-11-03T23:08:06.028Z,39.8
2017-11-03T23:10:05.836Z,39.5
2017-11-03T23:12:06.982Z,39.5
2017-11-03T23:14:05.785Z,39.8
2017-11-03T23:16:06.495Z,39.8
2017-11-03T23:18:05.440Z,39.8
2017-11-03T23:20:05.179Z,39.8
2017-11-03T23:22:07.637Z,39.8
2017-11-03T23:24:10.394Z,39.3
2017-11-03T23:26:05.384Z,39.6
2017-11-03T23:28:05.826Z,39.5
2017-11-03T23:30:08.099Z,39.3
2017-11-03T23:32:05.999Z,39.3
2017-11-03T23:34:07.760Z,39.4
2017-11-03T23:36:05.420Z,39.4
2017-11-03T23:38:05.172Z,39.2
2017-11-03T23:40:05.830Z,39.5
2017-11-03T23:42:05.600Z,39.4
2017-11-03T23:44:05.314Z,39.3
2017-11-03T23:46:05.044Z,39.2
2017-11-03T23:48:06.326Z,39.2
2017-11-03T23:50:05.243Z,39.2
2017-11-03T23:52:05.934Z,39.2
2017-11-03T23:54:08.183Z,39.1
2017-11-03T23:56:05.137Z,39.1
2017-11-03T23:58:09.608Z,39.1
